< < Back
Terminal Aerodrome Forecast


Current Version              Previous Versions:   1  2  3  4  5  6  7  8  9  

Terminal Aerodrome Forecast

233
FTUS42 KJAX 271753
TAFSSI
TAF
KSSI 271753Z 2718/2818 06015G22KT P6SM VCSH BKN035
     FM272300 07011KT P6SM SCT030 BKN250
     FM281400 07012G18KT P6SM VCSH SCT025 BKN035=

Latest METAR

659
SAUS70 KWBC 280800 RRJ
MTRSSI
METAR KSSI 280753Z AUTO 08008KT 10SM FEW022 27/24 A3003 RMK AO2 SLP169
T02670239 $


USA.gov is the U.S. government's official web portal to all federal, state and local government web resources and services.